Crystal Bay — V7BQ6 — position and weather

sailwx.info

Track history (hours):
 
Tides and Currents Weather Stations Pressure Air Temp Water Temp Dewpoint Dewpoint Depression Visibility Wind Speed Wind Dir Waves Ship Positions

Crystal Bay

Last reported at 2017-Oct-18 13:48 UTC. Time now 2017-Oct-22 05:00 UTC.
Position N 35°57' W 005°36'.

Length 183 m; draft 12.5 m.

Type: Tanker. MMSI: 538005187.

Date/timePositionNaut miles runAvg speedWind from/ knotsBaromVisibWave heightAir tempDewpointWater temp
2017-Oct-18 13:48N 35°57' W 005°36'2 7.3
2017-Oct-18 13:30N 35°58' W 005°33'3 6.5
2017-Oct-18 13:00N 35°59' W 005°29'3 6.3
2017-Oct-18 12:30N 36°00' W 005°26'3 7.0
2017-Oct-18 12:00N 36°03' W 005°23'3 5.4
2017-Oct-18 11:29N 36°05' W 005°24'0 0.1
2017-Oct-18 10:50N 36°05' W 005°24'0 0.0
2017-Oct-18 10:20N 36°05' W 005°24'0 0.1
2017-Oct-18 09:59N 36°05' W 005°24'0 0.1
2017-Oct-18 09:29N 36°05' W 005°24'0 0.0
2017-Oct-18 08:59N 36°05' W 005°24'0 0.1
2017-Oct-18 08:26N 36°05' W 005°24'0 0.0
2017-Oct-18 07:59N 36°05' W 005°24'0 0.0
2017-Oct-18 07:29N 36°05' W 005°24'0 0.1
2017-Oct-18 06:59N 36°05' W 005°24'0 0.1
2017-Oct-18 06:29N 36°05' W 005°24'0 0.0
2017-Oct-18 05:59N 36°05' W 005°24'0 0.1
2017-Oct-18 05:29N 36°05' W 005°24'0 0.1
2017-Oct-18 04:56N 36°05' W 005°24'0 0.1
2017-Oct-18 04:29N 36°05' W 005°24'0 0.0
2017-Oct-18 03:59N 36°05' W 005°24'0 0.2
2017-Oct-18 03:23N 36°05' W 005°24'0 0.1
2017-Oct-18 02:29N 36°05' W 005°24'0 0.2
2017-Oct-18 01:59N 36°05' W 005°25'0 0.2
2017-Oct-18 01:29N 36°05' W 005°25'0 0.0
2017-Oct-18 00:59N 36°05' W 005°25'0 0.0
2017-Oct-18 00:26N 36°05' W 005°25'0 0.0
2017-Oct-17 23:56N 36°05' W 005°25'0 0.5
2017-Oct-17 23:30N 36°05' W 005°24'2 3.7
2017-Oct-17 22:53N 36°04' W 005°22'3 7.0
2017-Oct-17 22:30N 36°02' W 005°20'2 4.1
2017-Oct-17 22:00N 35°60' W 005°19'4 7.7
2017-Oct-17 21:30N 35°59' W 005°24'612.4
2017-Oct-17 21:00N 35°57' W 005°31'611.0
2017-Oct-17 20:30N 35°55' W 005°38'610.0
2017-Oct-17 19:52N 35°55' W 005°46'  
Track history (hours):
 
Tides and Currents Weather Stations Pressure Air Temp Water Temp Dewpoint Dewpoint Depression Visibility Wind Speed Wind Dir Waves Ship Positions

Crystal Bay

Last reported at 2017-Oct-18 13:48 UTC. Time now 2017-Oct-22 05:00 UTC.
Position N 35°57' W 005°36'.

Length 183 m; draft 12.5 m.

Type: Tanker. MMSI: 538005187.

Date/timePositionNaut miles runAvg speedWind from/ knotsBaromVisibWave heightAir tempDewpointWater temp
2017-Oct-18 13:48N 35°57' W 005°36'2 7.3
2017-Oct-18 13:30N 35°58' W 005°33'3 6.5
2017-Oct-18 13:00N 35°59' W 005°29'3 6.3
2017-Oct-18 12:30N 36°00' W 005°26'3 7.0
2017-Oct-18 12:00N 36°03' W 005°23'3 5.4
2017-Oct-18 11:29N 36°05' W 005°24'0 0.1
2017-Oct-18 10:50N 36°05' W 005°24'0 0.0
2017-Oct-18 10:20N 36°05' W 005°24'0 0.1
2017-Oct-18 09:59N 36°05' W 005°24'0 0.1
2017-Oct-18 09:29N 36°05' W 005°24'0 0.0
2017-Oct-18 08:59N 36°05' W 005°24'0 0.1
2017-Oct-18 08:26N 36°05' W 005°24'0 0.0
2017-Oct-18 07:59N 36°05' W 005°24'0 0.0
2017-Oct-18 07:29N 36°05' W 005°24'0 0.1
2017-Oct-18 06:59N 36°05' W 005°24'0 0.1
2017-Oct-18 06:29N 36°05' W 005°24'0 0.0
2017-Oct-18 05:59N 36°05' W 005°24'0 0.1
2017-Oct-18 05:29N 36°05' W 005°24'0 0.1
2017-Oct-18 04:56N 36°05' W 005°24'0 0.1
2017-Oct-18 04:29N 36°05' W 005°24'0 0.0
2017-Oct-18 03:59N 36°05' W 005°24'0 0.2
2017-Oct-18 03:23N 36°05' W 005°24'0 0.1
2017-Oct-18 02:29N 36°05' W 005°24'0 0.2
2017-Oct-18 01:59N 36°05' W 005°25'0 0.2
2017-Oct-18 01:29N 36°05' W 005°25'0 0.0
2017-Oct-18 00:59N 36°05' W 005°25'0 0.0
2017-Oct-18 00:26N 36°05' W 005°25'0 0.0
2017-Oct-17 23:56N 36°05' W 005°25'0 0.5
2017-Oct-17 23:30N 36°05' W 005°24'2 3.7
2017-Oct-17 22:53N 36°04' W 005°22'3 7.0
2017-Oct-17 22:30N 36°02' W 005°20'2 4.1
2017-Oct-17 22:00N 35°60' W 005°19'4 7.7
2017-Oct-17 21:30N 35°59' W 005°24'612.4
2017-Oct-17 21:00N 35°57' W 005°31'611.0
2017-Oct-17 20:30N 35°55' W 005°38'610.0
2017-Oct-17 19:52N 35°55' W 005°46'  

Dump ship's entire track history